createdAt,value
2018-06-24T00:01:19.110Z,10.60
2018-06-24T00:03:46.441Z,10.60
2018-06-24T00:06:13.374Z,10.60
2018-06-24T00:08:40.529Z,10.60
2018-06-24T00:11:07.550Z,10.70
2018-06-24T00:13:34.494Z,10.70
2018-06-24T00:16:01.413Z,10.70
2018-06-24T00:18:28.629Z,10.80
2018-06-24T00:20:55.543Z,10.80
2018-06-24T00:23:22.489Z,10.90
2018-06-24T00:25:49.409Z,10.90
2018-06-24T00:28:16.350Z,10.90
2018-06-24T00:30:43.326Z,11.00
2018-06-24T00:33:10.274Z,11.00
2018-06-24T00:35:37.190Z,11.00
2018-06-24T00:38:04.138Z,11.00
2018-06-24T00:40:31.057Z,11.00
2018-06-24T00:42:58.011Z,11.00
2018-06-24T00:45:24.925Z,11.00
2018-06-24T00:47:51.865Z,11.00
2018-06-24T00:50:18.777Z,11.00
2018-06-24T00:52:45.726Z,11.00
2018-06-24T00:55:12.647Z,11.00
2018-06-24T00:57:39.598Z,11.00
2018-06-24T01:00:08.018Z,11.00
2018-06-24T01:02:35.585Z,11.00
2018-06-24T01:05:02.538Z,11.10
2018-06-24T01:07:30.117Z,11.00
2018-06-24T01:09:57.078Z,11.00
2018-06-24T01:12:24.098Z,11.10
2018-06-24T01:14:51.017Z,11.00
2018-06-24T01:17:17.957Z,11.00
2018-06-24T01:19:44.882Z,11.00
2018-06-24T01:22:11.830Z,11.10
2018-06-24T01:24:38.763Z,11.10
2018-06-24T01:27:05.710Z,11.00
2018-06-24T01:29:32.634Z,11.00
2018-06-24T01:31:59.578Z,11.00
2018-06-24T01:34:26.498Z,11.00
2018-06-24T01:36:53.450Z,11.00
2018-06-24T01:39:20.364Z,11.00
2018-06-24T01:41:47.453Z,11.00
2018-06-24T01:44:14.370Z,11.00
2018-06-24T01:46:41.285Z,11.00
2018-06-24T01:49:08.225Z,11.00
2018-06-24T01:51:35.152Z,11.00
2018-06-24T01:54:02.093Z,11.00
2018-06-24T01:56:29.022Z,11.00
2018-06-24T01:58:55.989Z,11.00
2018-06-24T02:01:22.914Z,11.00
2018-06-24T02:03:49.895Z,11.00
2018-06-24T02:06:16.851Z,11.10
2018-06-24T02:08:43.804Z,11.00
2018-06-24T02:11:10.718Z,11.10
2018-06-24T02:13:37.670Z,11.00
2018-06-24T02:16:04.602Z,11.00
2018-06-24T02:18:31.541Z,11.10
2018-06-24T02:23:25.386Z,11.10
2018-06-24T02:25:52.337Z,11.10
2018-06-24T02:28:19.282Z,11.10
2018-06-24T02:30:46.206Z,11.10
2018-06-24T02:33:13.162Z,11.10
2018-06-24T02:35:40.082Z,11.00
2018-06-24T02:40:33.925Z,11.00
2018-06-24T02:43:00.837Z,11.00
2018-06-24T02:45:27.786Z,10.90
2018-06-24T02:47:54.766Z,10.90
2018-06-24T02:50:21.705Z,10.90
2018-06-24T02:52:48.628Z,10.90
2018-06-24T02:55:15.566Z,10.90
2018-06-24T02:57:42.478Z,10.90
2018-06-24T03:00:09.417Z,10.90
2018-06-24T03:02:36.342Z,10.90
2018-06-24T03:05:03.322Z,10.90
2018-06-24T03:07:30.254Z,10.90
2018-06-24T03:09:57.234Z,10.90
2018-06-24T03:12:24.154Z,10.90
2018-06-24T03:17:18.926Z,10.90
2018-06-24T03:19:45.894Z,10.90
2018-06-24T03:22:13.141Z,10.90
2018-06-24T03:24:40.349Z,10.90
2018-06-24T03:27:07.330Z,10.90
2018-06-24T03:29:34.250Z,10.90
2018-06-24T03:32:01.190Z,11.00
2018-06-24T03:34:28.109Z,11.00
2018-06-24T03:36:55.052Z,11.00
2018-06-24T03:39:22.035Z,11.10
2018-06-24T03:41:48.977Z,11.10
2018-06-24T03:44:15.897Z,11.20
2018-06-24T03:46:42.852Z,11.20
2018-06-24T03:49:09.810Z,11.20
2018-06-24T03:51:36.746Z,11.20
2018-06-24T03:54:03.674Z,11.20
2018-06-24T03:56:30.622Z,11.10
2018-06-24T03:58:57.930Z,11.10
2018-06-24T04:01:24.874Z,11.00
2018-06-24T04:03:51.845Z,11.00
2018-06-24T04:06:18.781Z,11.00
2018-06-24T04:08:45.702Z,11.00
2018-06-24T04:11:12.902Z,11.00
2018-06-24T04:13:39.818Z,11.00
2018-06-24T04:16:07.087Z,11.00
2018-06-24T04:18:44.153Z,11.00
2018-06-24T04:21:12.482Z,11.10
2018-06-24T04:23:39.678Z,11.20
2018-06-24T04:26:07.551Z,11.30
2018-06-24T04:28:34.522Z,11.40
2018-06-24T04:31:01.438Z,11.50
2018-06-24T04:33:28.407Z,11.60
2018-06-24T04:35:55.322Z,11.80
2018-06-24T04:38:22.270Z,11.90
2018-06-24T04:40:49.190Z,12.00
2018-06-24T04:43:16.135Z,12.10
2018-06-24T04:45:43.050Z,12.30
2018-06-24T04:48:09.990Z,12.30
2018-06-24T04:50:36.927Z,12.40
2018-06-24T04:55:30.798Z,12.60
2018-06-24T04:57:57.778Z,12.60
2018-06-24T05:00:24.722Z,12.50
2018-06-24T05:02:52.001Z,12.60
2018-06-24T05:05:18.953Z,12.50
2018-06-24T05:07:45.902Z,12.50
2018-06-24T05:10:12.817Z,12.40
2018-06-24T05:12:39.782Z,12.30
2018-06-24T05:15:06.701Z,12.20
2018-06-24T05:17:33.631Z,12.30
2018-06-24T05:20:00.911Z,12.40
2018-06-24T05:22:27.856Z,12.60
2018-06-24T05:24:54.773Z,12.80
2018-06-24T05:27:22.102Z,12.60
2018-06-24T05:29:49.024Z,12.50
2018-06-24T05:32:15.941Z,12.60
2018-06-24T05:34:42.901Z,12.60
2018-06-24T05:37:09.830Z,12.80
2018-06-24T05:42:03.714Z,12.90
2018-06-24T05:44:30.666Z,12.80
2018-06-24T05:46:58.310Z,12.80
2018-06-24T05:49:25.259Z,12.80
2018-06-24T05:51:52.178Z,12.80
2018-06-24T05:54:19.130Z,12.70
2018-06-24T05:56:46.069Z,12.70
2018-06-24T05:59:13.302Z,12.80
2018-06-24T06:01:40.222Z,12.90
2018-06-24T06:04:07.186Z,13.00
2018-06-24T06:06:34.202Z,12.90
2018-06-24T06:09:01.157Z,13.10
2018-06-24T06:11:28.134Z,13.00
2018-06-24T06:13:55.078Z,13.10
2018-06-24T06:16:21.994Z,13.20
2018-06-24T06:18:48.934Z,13.10
2018-06-24T06:21:15.849Z,13.10
2018-06-24T06:23:42.790Z,13.30
2018-06-24T06:26:09.954Z,13.40
2018-06-24T06:28:36.902Z,13.30
2018-06-24T06:31:03.817Z,13.20
2018-06-24T06:33:30.761Z,13.30
2018-06-24T06:35:58.006Z,13.40
2018-06-24T06:38:24.958Z,13.40
2018-06-24T06:40:51.881Z,13.40
2018-06-24T06:43:18.818Z,13.50
2018-06-24T06:45:45.893Z,13.60
2018-06-24T06:48:12.729Z,13.70
2018-06-24T06:50:39.650Z,14.00
2018-06-24T06:53:06.781Z,14.40
2018-06-24T06:55:33.693Z,14.70
2018-06-24T06:58:00.633Z,15.10
2018-06-24T07:00:27.610Z,15.60
2018-06-24T07:02:54.884Z,16.10
2018-06-24T07:05:21.837Z,16.10
2018-06-24T07:07:49.078Z,15.90
2018-06-24T07:10:15.989Z,15.70
2018-06-24T07:12:42.950Z,15.60
2018-06-24T07:15:09.867Z,15.40
2018-06-24T07:17:36.789Z,15.40
2018-06-24T07:20:03.763Z,15.20
2018-06-24T07:22:30.690Z,15.10
2018-06-24T07:24:57.630Z,15.00
2018-06-24T07:27:24.578Z,15.00
2018-06-24T07:29:51.496Z,14.70
2018-06-24T07:32:18.457Z,14.60
2018-06-24T07:34:45.381Z,14.70
2018-06-24T07:37:12.317Z,14.60
2018-06-24T07:39:39.271Z,14.50
2018-06-24T07:42:06.221Z,14.50
2018-06-24T07:44:33.145Z,14.60
2018-06-24T07:47:00.114Z,14.80
2018-06-24T07:49:27.050Z,15.40
2018-06-24T07:51:54.002Z,15.90
2018-06-24T07:56:48.081Z,16.00
2018-06-24T07:59:15.030Z,16.50
2018-06-24T08:01:41.946Z,17.00
2018-06-24T08:04:08.927Z,16.80
2018-06-24T08:06:35.848Z,16.60
2018-06-24T08:09:04.154Z,16.90
2018-06-24T08:11:31.071Z,17.40
2018-06-24T08:13:58.015Z,17.40
2018-06-24T08:16:24.934Z,17.30
2018-06-24T08:18:51.878Z,17.10
2018-06-24T08:21:18.798Z,16.80
2018-06-24T08:23:45.742Z,16.60
2018-06-24T08:26:12.665Z,16.10
2018-06-24T08:28:39.934Z,15.90
2018-06-24T08:31:07.150Z,16.00
2018-06-24T08:33:34.094Z,16.20
2018-06-24T08:36:01.011Z,16.50
2018-06-24T08:38:27.963Z,16.80
2018-06-24T08:40:54.881Z,16.80
2018-06-24T08:43:21.818Z,16.70
2018-06-24T08:45:48.745Z,16.80
2018-06-24T08:48:15.686Z,16.50
2018-06-24T08:50:42.601Z,16.20
2018-06-24T08:53:09.538Z,16.20
2018-06-24T08:55:36.453Z,16.30
2018-06-24T08:58:03.394Z,16.50
2018-06-24T09:00:30.324Z,17.00
2018-06-24T09:02:57.307Z,17.50
2018-06-24T09:05:24.242Z,17.90
2018-06-24T09:07:51.537Z,17.90
2018-06-24T09:10:18.461Z,18.00
2018-06-24T09:12:45.386Z,17.90
2018-06-24T09:15:12.344Z,17.80
2018-06-24T09:17:39.314Z,17.70
2018-06-24T09:20:06.237Z,17.70
2018-06-24T09:22:33.286Z,17.80
2018-06-24T09:25:00.201Z,17.60
2018-06-24T09:27:27.145Z,17.30
2018-06-24T09:29:54.069Z,17.30
2018-06-24T09:32:21.017Z,17.30
2018-06-24T09:34:47.933Z,17.30
2018-06-24T09:37:14.861Z,17.20
2018-06-24T09:39:41.801Z,17.30
2018-06-24T09:42:08.727Z,17.30
2018-06-24T09:44:35.681Z,17.20
2018-06-24T09:47:02.611Z,17.40
2018-06-24T09:51:56.725Z,17.30
2018-06-24T09:54:23.669Z,17.20
2018-06-24T09:56:50.592Z,17.00
2018-06-24T09:59:17.537Z,16.80
2018-06-24T10:01:44.464Z,16.60
2018-06-24T10:04:11.438Z,16.50
2018-06-24T10:06:38.390Z,16.60
2018-06-24T10:09:06.866Z,16.60
2018-06-24T10:11:33.800Z,16.50
2018-06-24T10:14:00.746Z,16.70
2018-06-24T10:16:27.668Z,16.80
2018-06-24T10:18:54.590Z,16.70
2018-06-24T10:21:21.529Z,16.40
2018-06-24T10:23:48.449Z,16.00
2018-06-24T10:26:15.399Z,16.00
2018-06-24T10:28:42.309Z,16.10
2018-06-24T10:31:09.254Z,16.40
2018-06-24T10:33:36.165Z,16.40
2018-06-24T10:36:03.110Z,16.50
2018-06-24T10:38:30.025Z,16.80
2018-06-24T10:40:57.049Z,16.80
2018-06-24T10:43:23.962Z,17.00
2018-06-24T10:45:50.898Z,17.10
2018-06-24T10:48:17.817Z,17.20
2018-06-24T10:50:44.829Z,17.20
2018-06-24T10:53:11.754Z,16.90
2018-06-24T10:55:38.698Z,16.50
2018-06-24T10:58:05.750Z,16.20
2018-06-24T11:00:32.682Z,16.00
2018-06-24T11:02:59.598Z,15.90
2018-06-24T11:05:26.566Z,15.60
2018-06-24T11:07:53.505Z,15.20
2018-06-24T11:10:20.450Z,15.10
2018-06-24T11:12:47.363Z,15.10
2018-06-24T11:15:14.301Z,15.30
2018-06-24T11:17:41.213Z,15.50
2018-06-24T11:20:08.162Z,15.70
2018-06-24T11:22:35.066Z,15.90
2018-06-24T11:25:02.694Z,16.00
2018-06-24T11:27:29.925Z,16.00
2018-06-24T11:29:56.861Z,15.80
2018-06-24T11:32:23.818Z,15.50
2018-06-24T11:34:50.758Z,15.10
2018-06-24T11:37:17.734Z,15.00
2018-06-24T11:39:44.676Z,14.90
2018-06-24T11:42:11.594Z,14.90
2018-06-24T11:44:38.541Z,14.80
2018-06-24T11:47:05.449Z,14.80
2018-06-24T11:49:32.370Z,14.80
2018-06-24T11:51:59.310Z,14.80
2018-06-24T11:54:26.425Z,14.80
2018-06-24T11:56:53.564Z,14.90
2018-06-24T11:59:20.454Z,15.10
2018-06-24T12:01:47.403Z,15.30
2018-06-24T12:04:14.393Z,15.40
2018-06-24T12:06:41.366Z,15.70
2018-06-24T12:09:09.334Z,16.00
2018-06-24T12:11:36.294Z,16.30
2018-06-24T12:14:03.246Z,16.50
2018-06-24T12:16:30.205Z,16.70
2018-06-24T12:18:57.126Z,17.10
2018-06-24T12:21:24.074Z,17.40
2018-06-24T12:23:51.003Z,17.40
2018-06-24T12:26:17.949Z,16.90
2018-06-24T12:28:44.870Z,16.80
2018-06-24T12:31:11.805Z,16.80
2018-06-24T12:33:38.715Z,16.60
2018-06-24T12:36:05.673Z,16.60
2018-06-24T12:40:59.530Z,16.80
2018-06-24T12:43:26.452Z,17.00
2018-06-24T12:45:53.488Z,16.90
2018-06-24T12:48:20.410Z,16.60
2018-06-24T12:50:47.563Z,16.30
2018-06-24T12:53:14.517Z,16.30
2018-06-24T12:55:41.442Z,16.40
2018-06-24T12:58:08.475Z,16.60
2018-06-24T13:00:35.987Z,16.90
2018-06-24T13:03:02.555Z,17.20
2018-06-24T13:05:29.497Z,16.90
2018-06-24T13:07:56.458Z,17.00
2018-06-24T13:10:23.378Z,17.00
2018-06-24T13:12:50.573Z,16.70
2018-06-24T13:15:17.485Z,16.80
2018-06-24T13:17:44.422Z,16.70
2018-06-24T13:20:11.602Z,16.90
2018-06-24T13:22:38.541Z,17.30
2018-06-24T13:25:05.467Z,17.30
2018-06-24T13:27:32.411Z,17.30
2018-06-24T13:29:59.585Z,17.00
2018-06-24T13:32:26.526Z,16.40
2018-06-24T13:34:53.693Z,16.20
2018-06-24T13:37:20.953Z,16.10
2018-06-24T13:39:47.876Z,16.40
2018-06-24T13:42:14.818Z,16.50
2018-06-24T13:44:41.757Z,16.40
2018-06-24T13:47:08.981Z,16.30
2018-06-24T13:49:36.289Z,16.30
2018-06-24T13:52:03.234Z,16.30
2018-06-24T13:54:30.158Z,16.30
2018-06-24T13:56:57.305Z,16.30
2018-06-24T13:59:24.486Z,16.30
2018-06-24T14:01:51.393Z,16.40
2018-06-24T14:04:18.362Z,16.30
2018-06-24T14:06:45.281Z,16.30
2018-06-24T14:09:12.790Z,16.40
2018-06-24T14:11:39.902Z,16.40
2018-06-24T14:14:07.014Z,16.40
2018-06-24T14:16:33.922Z,16.40
2018-06-24T14:19:00.930Z,16.50
2018-06-24T14:21:27.846Z,16.60
2018-06-24T14:23:54.786Z,16.60
2018-06-24T14:26:21.710Z,16.50
2018-06-24T14:28:48.659Z,16.60
2018-06-24T14:31:15.586Z,16.70
2018-06-24T14:33:42.521Z,16.90
2018-06-24T14:36:09.440Z,17.10
2018-06-24T14:38:36.385Z,17.30
2018-06-24T14:41:03.302Z,17.20
2018-06-24T14:43:30.241Z,17.30
2018-06-24T14:45:57.158Z,17.30
2018-06-24T14:48:24.097Z,17.30
2018-06-24T14:50:51.005Z,17.40
2018-06-24T14:53:17.946Z,17.40
2018-06-24T14:55:44.869Z,17.30
2018-06-24T14:58:11.801Z,17.30
2018-06-24T15:00:38.717Z,17.40
2018-06-24T15:03:05.703Z,17.50
2018-06-24T15:05:32.621Z,17.60
2018-06-24T15:07:59.557Z,17.70
2018-06-24T15:10:26.470Z,17.70
2018-06-24T15:12:53.417Z,17.80
2018-06-24T15:15:20.342Z,17.80
2018-06-24T15:17:47.286Z,17.40
2018-06-24T15:20:14.202Z,17.10
2018-06-24T15:22:41.147Z,16.70
2018-06-24T15:25:08.078Z,16.60
2018-06-24T15:27:35.034Z,16.50
2018-06-24T15:30:02.825Z,16.40
2018-06-24T15:32:29.761Z,16.30
2018-06-24T15:34:56.674Z,16.30
2018-06-24T15:37:23.840Z,16.30
2018-06-24T15:39:50.774Z,16.30
2018-06-24T15:42:17.716Z,16.30
2018-06-24T15:47:11.946Z,16.20
2018-06-24T15:49:38.950Z,16.20
2018-06-24T15:52:05.833Z,16.00
2018-06-24T15:54:32.755Z,15.90
2018-06-24T15:56:59.728Z,15.70
2018-06-24T15:59:26.970Z,15.40
2018-06-24T16:01:53.975Z,15.10
2018-06-24T16:04:21.053Z,14.90
2018-06-24T16:06:47.990Z,14.90
2018-06-24T16:09:14.954Z,14.80
2018-06-24T16:11:41.886Z,14.80
2018-06-24T16:14:08.802Z,14.90
2018-06-24T16:16:36.321Z,14.90
2018-06-24T16:19:03.237Z,14.90
2018-06-24T16:21:30.344Z,15.00
2018-06-24T16:23:57.438Z,15.00
2018-06-24T16:26:24.349Z,15.00
2018-06-24T16:28:51.289Z,15.00
2018-06-24T16:31:18.230Z,15.10
2018-06-24T16:33:45.242Z,15.10
2018-06-24T16:36:12.267Z,15.20
2018-06-24T16:38:39.199Z,15.20
2018-06-24T16:41:06.126Z,15.30
2018-06-24T16:43:33.065Z,15.40
2018-06-24T16:46:00.047Z,15.60
2018-06-24T16:48:26.994Z,15.70
2018-06-24T16:50:53.906Z,15.80
2018-06-24T16:53:20.854Z,15.90
2018-06-24T16:55:47.774Z,15.80
2018-06-24T16:58:14.718Z,15.60
2018-06-24T17:00:41.941Z,15.40
2018-06-24T17:03:08.881Z,15.40
2018-06-24T17:05:35.827Z,15.40
2018-06-24T17:08:02.766Z,15.20
2018-06-24T17:10:29.822Z,15.10
2018-06-24T17:12:57.005Z,14.90
2018-06-24T17:15:23.931Z,14.80
2018-06-24T17:17:50.898Z,14.70
2018-06-24T17:20:17.841Z,14.70
2018-06-24T17:22:44.760Z,14.70
2018-06-24T17:25:11.770Z,14.60
2018-06-24T17:27:38.685Z,14.60
2018-06-24T17:30:05.630Z,14.60
2018-06-24T17:32:32.550Z,14.60
2018-06-24T17:34:59.683Z,14.60
2018-06-24T17:37:26.601Z,14.70
2018-06-24T17:39:53.542Z,14.60
2018-06-24T17:42:20.474Z,14.60
2018-06-24T17:44:47.421Z,14.50
2018-06-24T17:47:14.341Z,14.40
2018-06-24T17:49:41.281Z,14.20
2018-06-24T17:52:08.203Z,14.10
2018-06-24T17:54:35.141Z,13.90
2018-06-24T17:57:02.046Z,13.90
2018-06-24T17:59:29.001Z,13.90
2018-06-24T18:01:55.914Z,13.90
2018-06-24T18:04:23.122Z,13.90
2018-06-24T18:06:50.044Z,13.90
2018-06-24T18:09:16.999Z,13.90
2018-06-24T18:11:43.950Z,14.00
2018-06-24T18:14:11.166Z,14.10
2018-06-24T18:16:38.078Z,14.10
2018-06-24T18:19:05.078Z,14.10
2018-06-24T18:21:31.997Z,14.20
2018-06-24T18:26:26.574Z,14.00
2018-06-24T18:28:53.802Z,14.00
2018-06-24T18:31:20.746Z,13.80
2018-06-24T18:33:47.657Z,13.70
2018-06-24T18:36:14.602Z,13.70
2018-06-24T18:38:41.539Z,13.60
2018-06-24T18:41:08.535Z,13.40
2018-06-24T18:43:35.458Z,13.30
2018-06-24T18:46:02.402Z,13.30
2018-06-24T18:48:29.626Z,13.10
2018-06-24T18:50:56.569Z,12.90
2018-06-24T18:53:23.494Z,12.80
2018-06-24T18:55:50.438Z,12.80
2018-06-24T18:58:17.356Z,12.80
2018-06-24T19:00:44.303Z,12.90
2018-06-24T19:03:11.302Z,12.90
2018-06-24T19:05:38.261Z,13.00
2018-06-24T19:08:05.193Z,13.00
2018-06-24T19:10:32.453Z,13.00
2018-06-24T19:12:59.373Z,12.90
2018-06-24T19:15:26.342Z,12.90
2018-06-24T19:17:53.261Z,12.90
2018-06-24T19:20:20.311Z,12.90
2018-06-24T19:22:47.281Z,12.80
2018-06-24T19:25:14.218Z,12.80
2018-06-24T19:27:41.165Z,12.80
2018-06-24T19:30:08.081Z,12.80
2018-06-24T19:32:35.030Z,12.80
2018-06-24T19:35:01.955Z,12.70
2018-06-24T19:37:28.917Z,12.70
2018-06-24T19:39:56.189Z,12.60
2018-06-24T19:42:23.138Z,12.60
2018-06-24T19:44:50.093Z,12.60
2018-06-24T19:47:17.145Z,12.50
2018-06-24T19:49:44.065Z,12.50
2018-06-24T19:52:11.209Z,12.50
2018-06-24T19:54:38.138Z,12.50
2018-06-24T19:57:05.050Z,12.60
2018-06-24T19:59:32.003Z,12.50
2018-06-24T20:01:59.218Z,12.50
2018-06-24T20:04:26.198Z,12.60
2018-06-24T20:06:53.113Z,12.60
2018-06-24T20:09:20.153Z,12.60
2018-06-24T20:11:47.062Z,12.60
2018-06-24T20:14:14.006Z,12.50
2018-06-24T20:16:40.922Z,12.50
2018-06-24T20:19:07.862Z,12.40
2018-06-24T20:21:34.778Z,12.40
2018-06-24T20:24:01.777Z,12.40
2018-06-24T20:26:28.698Z,12.40
2018-06-24T20:28:55.650Z,12.50
2018-06-24T20:33:49.629Z,12.40
2018-06-24T20:36:16.547Z,12.40
2018-06-24T20:38:43.699Z,12.40
2018-06-24T20:41:10.675Z,12.40
2018-06-24T20:43:37.610Z,12.40
2018-06-24T20:46:04.593Z,12.40
2018-06-24T20:48:31.869Z,12.40
2018-06-24T20:50:58.814Z,12.40
2018-06-24T20:53:25.729Z,12.40
2018-06-24T20:55:52.677Z,12.30
2018-06-24T20:58:19.598Z,12.30
2018-06-24T21:00:46.543Z,12.30
2018-06-24T21:03:13.781Z,12.20
2018-06-24T21:05:40.746Z,12.20
2018-06-24T21:08:07.663Z,12.20
2018-06-24T21:10:34.611Z,12.20
2018-06-24T21:13:01.766Z,12.20
2018-06-24T21:15:28.710Z,12.20
2018-06-24T21:17:55.660Z,12.20
2018-06-24T21:20:22.605Z,12.20
2018-06-24T21:22:49.861Z,12.20
2018-06-24T21:25:16.797Z,12.20
2018-06-24T21:27:43.717Z,12.20
2018-06-24T21:30:10.669Z,12.20
2018-06-24T21:32:37.593Z,12.20
2018-06-24T21:35:04.536Z,12.20
2018-06-24T21:37:31.449Z,12.20
2018-06-24T21:39:58.409Z,12.20
2018-06-24T21:42:25.333Z,12.20
2018-06-24T21:44:52.589Z,12.20
2018-06-24T21:47:19.857Z,12.20
2018-06-24T21:49:46.778Z,12.20
2018-06-24T21:52:13.734Z,12.30
2018-06-24T21:54:40.649Z,12.30
2018-06-24T21:57:07.589Z,12.30
2018-06-24T21:59:34.502Z,12.30
2018-06-24T22:04:28.374Z,12.30
2018-06-24T22:06:55.313Z,12.40
2018-06-24T22:09:22.234Z,12.40
2018-06-24T22:11:49.170Z,12.40
2018-06-24T22:14:16.098Z,12.50
2018-06-24T22:16:43.354Z,12.50
2018-06-24T22:19:10.427Z,12.50
2018-06-24T22:21:37.505Z,12.40
2018-06-24T22:24:04.430Z,12.40
2018-06-24T22:26:31.367Z,12.30
2018-06-24T22:28:58.285Z,12.30
2018-06-24T22:31:25.467Z,12.30
2018-06-24T22:33:52.382Z,12.30
2018-06-24T22:36:19.561Z,12.20
2018-06-24T22:38:46.512Z,12.20
2018-06-24T22:41:13.425Z,12.20
2018-06-24T22:43:40.578Z,12.20
2018-06-24T22:46:07.541Z,12.20
2018-06-24T22:48:34.505Z,12.20
2018-06-24T22:51:01.426Z,12.20
2018-06-24T22:53:28.522Z,12.20
2018-06-24T22:55:55.438Z,12.20
2018-06-24T22:58:22.398Z,12.20
2018-06-24T23:00:49.313Z,12.20
2018-06-24T23:03:16.305Z,12.20
2018-06-24T23:05:43.227Z,12.20
2018-06-24T23:08:10.174Z,12.20
2018-06-24T23:10:37.094Z,12.10
2018-06-24T23:13:04.189Z,12.10
2018-06-24T23:15:31.126Z,12.10
2018-06-24T23:17:58.070Z,12.10
2018-06-24T23:20:25.001Z,12.10
2018-06-24T23:22:51.925Z,12.10
2018-06-24T23:25:18.879Z,12.10
2018-06-24T23:27:45.810Z,12.10
2018-06-24T23:30:12.749Z,12.00
2018-06-24T23:32:39.679Z,12.00
2018-06-24T23:35:06.809Z,12.00
2018-06-24T23:37:33.734Z,12.00
2018-06-24T23:40:00.684Z,12.00
2018-06-24T23:42:27.605Z,12.00
2018-06-24T23:44:54.556Z,11.90
2018-06-24T23:47:21.553Z,11.90
2018-06-24T23:52:15.396Z,11.90
2018-06-24T23:54:42.331Z,11.90
2018-06-24T23:57:09.241Z,11.90
2018-06-24T23:59:36.196Z,11.90
